Aérodrome :
LOGIN :

S'inscrire | Disclaimer

   EN    FR    IT 

 










Légende :    VFR   VFR Marginal   IFR   IFR Intensif   IFR Très Intensif
Visi : 
Plafond : 
>= 8 km
>= 3000ft
5 à 8 km
1000 à 3000 ft
1500m à 5 km
500 à 1000 ft
800 à 1500m
200 à 500 ft
< 800m
< 200 ft
Symboles :   Orages  Brouillard  Fortes neiges  Fortes précipitations  Vent > 20 kt
SIGMETs :   Divers  Orages  Givrage  Turbulence  Onde Orograph.  Cendres Volcan.







- Altitude de l'aérodrome : 461 ft
- Code IATA : WIE


ETOU - Wiesbaden Army

DERNIER METAR :
  • 241156Z AUTO 34005KT 9999 BKN047 BKN110 20/09 A3016 RMK AO2 SLP214 T01970090 10198 20139 58009 $

METARs EXPIRÉS :
  • 241056Z AUTO 00000KT 9999 FEW040 BKN060 18/10 A3017 RMK AO2 SLP218 T01800101 $
  • 240956Z AUTO 00000KT 9999 BKN036 OVC055 17/10 A3018 RMK AO2 SLP221 T01710095 $

TAF TAF ETOU
Valide du 24 à 11h jusqu'au 25 à 17h UTC


241106Z 2411/2517 VRB06KT 9999 SCT060 BKN150 QNH3012INS
BECMG 2502/2503 01009KT 9999 SCT015 BKN030 QNH3017INS
TEMPO 2503/2507 8000 -RA BKN015 OVC030
BECMG 2507/2508 01009KT 9999 FEW015 SCT030 QNH3019INS TX21/2415Z TN09/2503Z
Pas de NOTAMs connus pour ce terrain.



MET'MAP, la Météo Aéronautique d'un coup d'oeil ! - Copyright ORBIFLY Décembre 2007 - Disclaimer

ORBIFLY MET'MAP TEAM :

Programmation & Développement : Alexandra Zaïnal
Conception & Développement : Baudouin d'Aumeries
Co-Programmation & Développement : Marc-Olivier Méhu
Soutien technique & logistique : Manuel Goepfert

Contact : metmap@orbifly.com




SOURCES & CREDITS :

   NOAA